sensor_id;sensor_type;location;lat;lon;timestamp;P1;durP1;ratioP1;P2;durP2;ratioP2
32198;SDS011;19221;42.656;21.156;2023-04-23T00:01:23;16.17;;;8.80;;
32198;SDS011;19221;42.656;21.156;2023-04-23T00:03:51;17.13;;;8.52;;
32198;SDS011;19221;42.656;21.156;2023-04-23T00:06:19;17.35;;;9.30;;
32198;SDS011;19221;42.656;21.156;2023-04-23T00:08:46;14.10;;;9.02;;
32198;SDS011;19221;42.656;21.156;2023-04-23T00:11:12;16.08;;;9.27;;
32198;SDS011;19221;42.656;21.156;2023-04-23T00:13:38;15.00;;;8.65;;
32198;SDS011;19221;42.656;21.156;2023-04-23T00:16:04;17.38;;;9.35;;
32198;SDS011;19221;42.656;21.156;2023-04-23T00:18:30;19.65;;;9.73;;
32198;SDS011;19221;42.656;21.156;2023-04-23T00:20:55;15.52;;;8.73;;
32198;SDS011;19221;42.656;21.156;2023-04-23T00:23:21;14.63;;;8.60;;
32198;SDS011;19221;42.656;21.156;2023-04-23T00:25:47;15.07;;;8.55;;
32198;SDS011;19221;42.656;21.156;2023-04-23T00:28:14;14.63;;;8.82;;
32198;SDS011;19221;42.656;21.156;2023-04-23T00:30:40;14.48;;;8.90;;
32198;SDS011;19221;42.656;21.156;2023-04-23T00:33:06;15.23;;;8.43;;
32198;SDS011;19221;42.656;21.156;2023-04-23T00:35:31;18.63;;;9.07;;
32198;SDS011;19221;42.656;21.156;2023-04-23T00:37:57;15.23;;;8.90;;
32198;SDS011;19221;42.656;21.156;2023-04-23T00:40:23;21.05;;;8.45;;
32198;SDS011;19221;42.656;21.156;2023-04-23T00:42:49;12.43;;;8.18;;
32198;SDS011;19221;42.656;21.156;2023-04-23T00:45:16;15.63;;;9.20;;
32198;SDS011;19221;42.656;21.156;2023-04-23T00:47:42;13.93;;;9.18;;
32198;SDS011;19221;42.656;21.156;2023-04-23T00:50:08;16.10;;;8.40;;
32198;SDS011;19221;42.656;21.156;2023-04-23T00:52:34;17.02;;;9.02;;
32198;SDS011;19221;42.656;21.156;2023-04-23T00:55:00;15.15;;;8.07;;
32198;SDS011;19221;42.656;21.156;2023-04-23T00:57:26;17.27;;;7.97;;
32198;SDS011;19221;42.656;21.156;2023-04-23T00:59:52;18.80;;;7.63;;
32198;SDS011;19221;42.656;21.156;2023-04-23T01:02:19;12.05;;;6.82;;
32198;SDS011;19221;42.656;21.156;2023-04-23T01:04:45;14.38;;;7.07;;
32198;SDS011;19221;42.656;21.156;2023-04-23T01:07:15;11.05;;;6.10;;
32198;SDS011;19221;42.656;21.156;2023-04-23T01:09:41;10.57;;;6.88;;
32198;SDS011;19221;42.656;21.156;2023-04-23T01:12:06;13.85;;;8.07;;
32198;SDS011;19221;42.656;21.156;2023-04-23T01:14:33;17.08;;;7.55;;
32198;SDS011;19221;42.656;21.156;2023-04-23T01:16:58;13.05;;;7.55;;
32198;SDS011;19221;42.656;21.156;2023-04-23T01:19:24;13.15;;;8.25;;
32198;SDS011;19221;42.656;21.156;2023-04-23T01:21:51;12.85;;;7.75;;
32198;SDS011;19221;42.656;21.156;2023-04-23T01:24:17;14.43;;;8.02;;
32198;SDS011;19221;42.656;21.156;2023-04-23T01:26:43;17.33;;;8.40;;
32198;SDS011;19221;42.656;21.156;2023-04-23T01:29:09;12.82;;;7.68;;
32198;SDS011;19221;42.656;21.156;2023-04-23T01:31:35;12.48;;;7.68;;
32198;SDS011;19221;42.656;21.156;2023-04-23T01:34:01;10.18;;;7.05;;
32198;SDS011;19221;42.656;21.156;2023-04-23T01:36:27;11.10;;;7.00;;
32198;SDS011;19221;42.656;21.156;2023-04-23T01:38:53;12.15;;;6.45;;
32198;SDS011;19221;42.656;21.156;2023-04-23T01:41:18;11.27;;;7.07;;
32198;SDS011;19221;42.656;21.156;2023-04-23T01:43:44;12.38;;;7.43;;
32198;SDS011;19221;42.656;21.156;2023-04-23T01:46:10;12.73;;;6.82;;
32198;SDS011;19221;42.656;21.156;2023-04-23T01:48:36;11.98;;;7.00;;
32198;SDS011;19221;42.656;21.156;2023-04-23T01:51:02;13.35;;;7.50;;
32198;SDS011;19221;42.656;21.156;2023-04-23T01:53:28;13.32;;;7.88;;
32198;SDS011;19221;42.656;21.156;2023-04-23T01:55:54;14.38;;;7.22;;
32198;SDS011;19221;42.656;21.156;2023-04-23T01:58:20;12.52;;;7.57;;
32198;SDS011;19221;42.656;21.156;2023-04-23T02:00:47;15.23;;;8.27;;
32198;SDS011;19221;42.656;21.156;2023-04-23T02:03:13;13.80;;;7.82;;
32198;SDS011;19221;42.656;21.156;2023-04-23T02:05:39;12.45;;;8.00;;
32198;SDS011;19221;42.656;21.156;2023-04-23T02:08:05;16.35;;;8.05;;
32198;SDS011;19221;42.656;21.156;2023-04-23T02:10:31;15.20;;;9.45;;
32198;SDS011;19221;42.656;21.156;2023-04-23T02:12:57;15.95;;;9.50;;
32198;SDS011;19221;42.656;21.156;2023-04-23T02:15:23;20.30;;;9.32;;
32198;SDS011;19221;42.656;21.156;2023-04-23T02:17:49;18.90;;;9.45;;
32198;SDS011;19221;42.656;21.156;2023-04-23T02:20:18;15.32;;;9.65;;
32198;SDS011;19221;42.656;21.156;2023-04-23T02:22:44;16.88;;;9.43;;
32198;SDS011;19221;42.656;21.156;2023-04-23T02:25:10;14.50;;;9.07;;
32198;SDS011;19221;42.656;21.156;2023-04-23T02:27:36;13.32;;;8.57;;
32198;SDS011;19221;42.656;21.156;2023-04-23T02:30:02;14.55;;;8.63;;
32198;SDS011;19221;42.656;21.156;2023-04-23T02:32:27;14.40;;;8.13;;
32198;SDS011;19221;42.656;21.156;2023-04-23T02:34:53;14.98;;;8.13;;
32198;SDS011;19221;42.656;21.156;2023-04-23T02:37:19;13.63;;;6.93;;
32198;SDS011;19221;42.656;21.156;2023-04-23T02:39:45;12.20;;;7.25;;
32198;SDS011;19221;42.656;21.156;2023-04-23T02:42:11;12.38;;;7.63;;
32198;SDS011;19221;42.656;21.156;2023-04-23T02:44:37;12.55;;;6.88;;
32198;SDS011;19221;42.656;21.156;2023-04-23T02:47:03;10.73;;;6.05;;
32198;SDS011;19221;42.656;21.156;2023-04-23T02:49:29;16.45;;;8.68;;
32198;SDS011;19221;42.656;21.156;2023-04-23T02:51:54;9.30;;;5.55;;
32198;SDS011;19221;42.656;21.156;2023-04-23T02:54:20;11.38;;;6.45;;
32198;SDS011;19221;42.656;21.156;2023-04-23T02:56:46;14.98;;;6.93;;
32198;SDS011;19221;42.656;21.156;2023-04-23T02:59:12;9.63;;;6.53;;
32198;SDS011;19221;42.656;21.156;2023-04-23T03:01:37;9.57;;;6.38;;
32198;SDS011;19221;42.656;21.156;2023-04-23T03:04:03;13.60;;;6.28;;
32198;SDS011;19221;42.656;21.156;2023-04-23T03:06:29;11.70;;;6.72;;
32198;SDS011;19221;42.656;21.156;2023-04-23T03:08:56;10.20;;;6.32;;
32198;SDS011;19221;42.656;21.156;2023-04-23T03:11:22;10.80;;;6.93;;
32198;SDS011;19221;42.656;21.156;2023-04-23T03:13:49;12.63;;;7.22;;
32198;SDS011;19221;42.656;21.156;2023-04-23T03:16:14;16.25;;;7.22;;
32198;SDS011;19221;42.656;21.156;2023-04-23T03:18:41;11.57;;;7.43;;
32198;SDS011;19221;42.656;21.156;2023-04-23T03:21:06;9.90;;;6.43;;
32198;SDS011;19221;42.656;21.156;2023-04-23T03:23:32;12.95;;;7.38;;
32198;SDS011;19221;42.656;21.156;2023-04-23T03:25:57;15.25;;;7.18;;
32198;SDS011;19221;42.656;21.156;2023-04-23T03:28:23;13.68;;;7.10;;
32198;SDS011;19221;42.656;21.156;2023-04-23T03:30:49;9.50;;;6.43;;
32198;SDS011;19221;42.656;21.156;2023-04-23T03:33:14;11.68;;;6.75;;
32198;SDS011;19221;42.656;21.156;2023-04-23T03:35:40;10.07;;;6.45;;
32198;SDS011;19221;42.656;21.156;2023-04-23T03:38:06;12.40;;;7.32;;
32198;SDS011;19221;42.656;21.156;2023-04-23T03:40:31;16.63;;;7.10;;
32198;SDS011;19221;42.656;21.156;2023-04-23T03:42:57;13.07;;;6.70;;
32198;SDS011;19221;42.656;21.156;2023-04-23T03:45:23;11.05;;;6.97;;
32198;SDS011;19221;42.656;21.156;2023-04-23T03:47:49;12.93;;;7.15;;
32198;SDS011;19221;42.656;21.156;2023-04-23T03:50:15;16.52;;;7.30;;
32198;SDS011;19221;42.656;21.156;2023-04-23T03:52:41;12.15;;;7.75;;
32198;SDS011;19221;42.656;21.156;2023-04-23T03:55:07;11.68;;;7.50;;
32198;SDS011;19221;42.656;21.156;2023-04-23T03:57:33;16.52;;;8.20;;
32198;SDS011;19221;42.656;21.156;2023-04-23T03:59:59;16.48;;;9.18;;
32198;SDS011;19221;42.656;21.156;2023-04-23T04:02:25;14.38;;;8.73;;
32198;SDS011;19221;42.656;21.156;2023-04-23T04:04:51;15.73;;;8.52;;
32198;SDS011;19221;42.656;21.156;2023-04-23T04:07:16;10.98;;;7.93;;
32198;SDS011;19221;42.656;21.156;2023-04-23T04:09:42;16.08;;;8.73;;
32198;SDS011;19221;42.656;21.156;2023-04-23T04:12:08;15.82;;;8.00;;
32198;SDS011;19221;42.656;21.156;2023-04-23T04:14:34;13.38;;;7.78;;
32198;SDS011;19221;42.656;21.156;2023-04-23T04:16:59;14.10;;;8.63;;
32198;SDS011;19221;42.656;21.156;2023-04-23T04:19:25;14.82;;;8.80;;
32198;SDS011;19221;42.656;21.156;2023-04-23T04:21:51;15.68;;;8.90;;
32198;SDS011;19221;42.656;21.156;2023-04-23T04:24:16;14.88;;;7.53;;
32198;SDS011;19221;42.656;21.156;2023-04-23T04:26:43;14.77;;;8.20;;
32198;SDS011;19221;42.656;21.156;2023-04-23T04:29:09;13.70;;;7.47;;
32198;SDS011;19221;42.656;21.156;2023-04-23T04:31:35;10.48;;;6.75;;
32198;SDS011;19221;42.656;21.156;2023-04-23T04:34:01;14.05;;;7.07;;
32198;SDS011;19221;42.656;21.156;2023-04-23T04:36:27;13.45;;;7.03;;
32198;SDS011;19221;42.656;21.156;2023-04-23T04:38:53;13.77;;;7.53;;
32198;SDS011;19221;42.656;21.156;2023-04-23T04:41:25;14.27;;;7.53;;
32198;SDS011;19221;42.656;21.156;2023-04-23T04:43:52;16.20;;;7.07;;
32198;SDS011;19221;42.656;21.156;2023-04-23T04:46:19;13.57;;;7.15;;
32198;SDS011;19221;42.656;21.156;2023-04-23T04:48:45;15.73;;;7.18;;
32198;SDS011;19221;42.656;21.156;2023-04-23T04:51:11;14.15;;;7.70;;
32198;SDS011;19221;42.656;21.156;2023-04-23T04:53:36;18.00;;;7.95;;
32198;SDS011;19221;42.656;21.156;2023-04-23T04:56:02;16.08;;;8.40;;
32198;SDS011;19221;42.656;21.156;2023-04-23T04:58:28;22.48;;;10.05;;
32198;SDS011;19221;42.656;21.156;2023-04-23T05:00:54;17.63;;;9.85;;
32198;SDS011;19221;42.656;21.156;2023-04-23T05:03:20;13.77;;;8.50;;
32198;SDS011;19221;42.656;21.156;2023-04-23T05:05:46;17.48;;;8.40;;
32198;SDS011;19221;42.656;21.156;2023-04-23T05:08:13;15.00;;;8.82;;
32198;SDS011;19221;42.656;21.156;2023-04-23T05:10:41;13.23;;;8.93;;
32198;SDS011;19221;42.656;21.156;2023-04-23T05:13:07;17.00;;;9.90;;
32198;SDS011;19221;42.656;21.156;2023-04-23T05:15:32;19.17;;;9.73;;
32198;SDS011;19221;42.656;21.156;2023-04-23T05:17:58;18.40;;;10.43;;
32198;SDS011;19221;42.656;21.156;2023-04-23T05:20:23;18.83;;;9.95;;
32198;SDS011;19221;42.656;21.156;2023-04-23T05:22:49;19.98;;;10.50;;
32198;SDS011;19221;42.656;21.156;2023-04-23T05:25:15;18.75;;;10.50;;
32198;SDS011;19221;42.656;21.156;2023-04-23T05:27:40;24.17;;;10.32;;
32198;SDS011;19221;42.656;21.156;2023-04-23T05:30:07;17.40;;;10.40;;
32198;SDS011;19221;42.656;21.156;2023-04-23T05:32:34;17.20;;;10.55;;
32198;SDS011;19221;42.656;21.156;2023-04-23T05:35:00;18.05;;;10.70;;
32198;SDS011;19221;42.656;21.156;2023-04-23T05:37:27;21.30;;;10.95;;
32198;SDS011;19221;42.656;21.156;2023-04-23T05:39:53;13.73;;;9.38;;
32198;SDS011;19221;42.656;21.156;2023-04-23T05:42:19;18.60;;;11.38;;
32198;SDS011;19221;42.656;21.156;2023-04-23T05:44:44;18.73;;;12.15;;
32198;SDS011;19221;42.656;21.156;2023-04-23T05:47:11;20.75;;;13.43;;
32198;SDS011;19221;42.656;21.156;2023-04-23T05:49:37;22.98;;;14.05;;
32198;SDS011;19221;42.656;21.156;2023-04-23T05:52:03;25.80;;;14.07;;
32198;SDS011;19221;42.656;21.156;2023-04-23T05:54:29;23.92;;;13.60;;
32198;SDS011;19221;42.656;21.156;2023-04-23T05:56:54;25.83;;;13.93;;
32198;SDS011;19221;42.656;21.156;2023-04-23T05:59:20;26.45;;;12.70;;
32198;SDS011;19221;42.656;21.156;2023-04-23T06:01:47;23.23;;;12.30;;
32198;SDS011;19221;42.656;21.156;2023-04-23T06:04:13;22.52;;;11.73;;
32198;SDS011;19221;42.656;21.156;2023-04-23T06:06:39;24.63;;;13.07;;
32198;SDS011;19221;42.656;21.156;2023-04-23T06:09:05;24.90;;;12.20;;
32198;SDS011;19221;42.656;21.156;2023-04-23T06:11:31;19.50;;;12.52;;
32198;SDS011;19221;42.656;21.156;2023-04-23T06:13:57;19.55;;;12.27;;
32198;SDS011;19221;42.656;21.156;2023-04-23T06:16:23;23.23;;;12.15;;
32198;SDS011;19221;42.656;21.156;2023-04-23T06:18:49;17.90;;;12.27;;
32198;SDS011;19221;42.656;21.156;2023-04-23T06:21:15;17.60;;;11.60;;
32198;SDS011;19221;42.656;21.156;2023-04-23T06:23:40;25.98;;;12.43;;
32198;SDS011;19221;42.656;21.156;2023-04-23T06:26:06;21.50;;;11.43;;
32198;SDS011;19221;42.656;21.156;2023-04-23T06:28:32;21.92;;;11.85;;
32198;SDS011;19221;42.656;21.156;2023-04-23T06:30:57;22.35;;;12.07;;
32198;SDS011;19221;42.656;21.156;2023-04-23T06:33:23;24.80;;;13.30;;
32198;SDS011;19221;42.656;21.156;2023-04-23T06:35:49;20.92;;;11.75;;
32198;SDS011;19221;42.656;21.156;2023-04-23T06:38:15;23.70;;;11.93;;
32198;SDS011;19221;42.656;21.156;2023-04-23T06:40:43;21.27;;;12.02;;
32198;SDS011;19221;42.656;21.156;2023-04-23T06:43:08;21.95;;;12.18;;
32198;SDS011;19221;42.656;21.156;2023-04-23T06:45:34;17.67;;;13.13;;
32198;SDS011;19221;42.656;21.156;2023-04-23T06:48:00;18.83;;;11.32;;
32198;SDS011;19221;42.656;21.156;2023-04-23T06:50:26;20.20;;;10.95;;
32198;SDS011;19221;42.656;21.156;2023-04-23T06:52:52;16.90;;;11.15;;
32198;SDS011;19221;42.656;21.156;2023-04-23T06:55:17;17.55;;;10.15;;
32198;SDS011;19221;42.656;21.156;2023-04-23T06:57:43;14.73;;;9.52;;
32198;SDS011;19221;42.656;21.156;2023-04-23T07:00:09;17.90;;;10.15;;
32198;SDS011;19221;42.656;21.156;2023-04-23T07:02:37;21.65;;;11.57;;
32198;SDS011;19221;42.656;21.156;2023-04-23T07:05:03;14.35;;;10.43;;
32198;SDS011;19221;42.656;21.156;2023-04-23T07:07:29;18.23;;;10.73;;
32198;SDS011;19221;42.656;21.156;2023-04-23T07:09:55;18.95;;;11.07;;
32198;SDS011;19221;42.656;21.156;2023-04-23T07:12:21;17.52;;;10.45;;
32198;SDS011;19221;42.656;21.156;2023-04-23T07:14:46;18.00;;;10.55;;
32198;SDS011;19221;42.656;21.156;2023-04-23T07:17:12;13.73;;;9.88;;
32198;SDS011;19221;42.656;21.156;2023-04-23T07:19:37;18.55;;;11.20;;
32198;SDS011;19221;42.656;21.156;2023-04-23T07:22:03;19.63;;;11.02;;
32198;SDS011;19221;42.656;21.156;2023-04-23T07:24:29;19.45;;;10.55;;
32198;SDS011;19221;42.656;21.156;2023-04-23T07:26:54;24.10;;;11.32;;
32198;SDS011;19221;42.656;21.156;2023-04-23T07:29:20;17.10;;;10.55;;
32198;SDS011;19221;42.656;21.156;2023-04-23T07:31:46;16.67;;;10.90;;
32198;SDS011;19221;42.656;21.156;2023-04-23T07:34:12;17.48;;;12.07;;
32198;SDS011;19221;42.656;21.156;2023-04-23T07:36:38;22.85;;;10.30;;
32198;SDS011;19221;42.656;21.156;2023-04-23T07:39:04;23.25;;;11.48;;
32198;SDS011;19221;42.656;21.156;2023-04-23T07:41:30;24.40;;;10.50;;
32198;SDS011;19221;42.656;21.156;2023-04-23T07:43:55;23.77;;;11.50;;
32198;SDS011;19221;42.656;21.156;2023-04-23T07:46:21;15.32;;;10.32;;
32198;SDS011;19221;42.656;21.156;2023-04-23T07:48:47;17.65;;;10.50;;
32198;SDS011;19221;42.656;21.156;2023-04-23T07:51:13;22.45;;;11.10;;
32198;SDS011;19221;42.656;21.156;2023-04-23T07:53:38;18.45;;;10.18;;
32198;SDS011;19221;42.656;21.156;2023-04-23T07:56:04;18.33;;;11.52;;
32198;SDS011;19221;42.656;21.156;2023-04-23T07:58:30;20.60;;;11.45;;
32198;SDS011;19221;42.656;21.156;2023-04-23T08:00:57;18.35;;;10.30;;
32198;SDS011;19221;42.656;21.156;2023-04-23T08:03:23;23.73;;;10.88;;
32198;SDS011;19221;42.656;21.156;2023-04-23T08:05:48;15.90;;;9.63;;
32198;SDS011;19221;42.656;21.156;2023-04-23T08:08:14;17.20;;;8.82;;
32198;SDS011;19221;42.656;21.156;2023-04-23T08:10:40;16.33;;;8.30;;
32198;SDS011;19221;42.656;21.156;2023-04-23T08:13:06;13.63;;;8.63;;
32198;SDS011;19221;42.656;21.156;2023-04-23T08:15:32;19.80;;;7.63;;
32198;SDS011;19221;42.656;21.156;2023-04-23T08:17:57;18.15;;;8.10;;
32198;SDS011;19221;42.656;21.156;2023-04-23T08:20:23;14.43;;;7.18;;
32198;SDS011;19221;42.656;21.156;2023-04-23T08:22:50;16.30;;;7.13;;
32198;SDS011;19221;42.656;21.156;2023-04-23T08:25:15;17.02;;;7.30;;
32198;SDS011;19221;42.656;21.156;2023-04-23T08:27:41;18.27;;;7.55;;
32198;SDS011;19221;42.656;21.156;2023-04-23T08:30:07;15.93;;;7.05;;
32198;SDS011;19221;42.656;21.156;2023-04-23T08:32:33;17.23;;;6.95;;
32198;SDS011;19221;42.656;21.156;2023-04-23T08:34:58;20.52;;;7.60;;
32198;SDS011;19221;42.656;21.156;2023-04-23T08:37:24;27.25;;;10.32;;
32198;SDS011;19221;42.656;21.156;2023-04-23T08:39:50;16.45;;;7.32;;
32198;SDS011;19221;42.656;21.156;2023-04-23T08:42:17;18.13;;;7.75;;
32198;SDS011;19221;42.656;21.156;2023-04-23T08:44:46;10.30;;;7.47;;
32198;SDS011;19221;42.656;21.156;2023-04-23T08:47:12;14.05;;;7.15;;
32198;SDS011;19221;42.656;21.156;2023-04-23T08:49:41;21.88;;;7.70;;
32198;SDS011;19221;42.656;21.156;2023-04-23T08:52:17;13.40;;;6.65;;
32198;SDS011;19221;42.656;21.156;2023-04-23T08:54:45;16.75;;;7.60;;
32198;SDS011;19221;42.656;21.156;2023-04-23T08:57:10;15.82;;;7.15;;
32198;SDS011;19221;42.656;21.156;2023-04-23T08:59:36;23.42;;;9.10;;
32198;SDS011;19221;42.656;21.156;2023-04-23T09:02:04;16.85;;;8.55;;
32198;SDS011;19221;42.656;21.156;2023-04-23T09:04:34;18.30;;;6.15;;
32198;SDS011;19221;42.656;21.156;2023-04-23T09:07:00;13.68;;;6.43;;
32198;SDS011;19221;42.656;21.156;2023-04-23T09:09:26;19.92;;;7.05;;
32198;SDS011;19221;42.656;21.156;2023-04-23T09:11:52;14.40;;;6.63;;
32198;SDS011;19221;42.656;21.156;2023-04-23T09:14:18;22.85;;;6.60;;
32198;SDS011;19221;42.656;21.156;2023-04-23T09:16:44;14.80;;;6.65;;
32198;SDS011;19221;42.656;21.156;2023-04-23T09:19:10;33.08;;;8.00;;
32198;SDS011;19221;42.656;21.156;2023-04-23T09:21:36;12.98;;;5.97;;
32198;SDS011;19221;42.656;21.156;2023-04-23T09:24:08;24.58;;;6.85;;
32198;SDS011;19221;42.656;21.156;2023-04-23T09:26:35;14.77;;;6.78;;
32198;SDS011;19221;42.656;21.156;2023-04-23T09:29:18;10.93;;;5.50;;
32198;SDS011;19221;42.656;21.156;2023-04-23T09:31:46;9.73;;;5.13;;
32198;SDS011;19221;42.656;21.156;2023-04-23T09:34:15;17.92;;;7.68;;
32198;SDS011;19221;42.656;21.156;2023-04-23T09:36:44;18.42;;;7.07;;
32198;SDS011;19221;42.656;21.156;2023-04-23T09:39:11;15.45;;;6.60;;
32198;SDS011;19221;42.656;21.156;2023-04-23T09:41:37;19.80;;;8.35;;
32198;SDS011;19221;42.656;21.156;2023-04-23T09:44:02;19.92;;;7.95;;
32198;SDS011;19221;42.656;21.156;2023-04-23T09:46:38;11.30;;;6.40;;
32198;SDS011;19221;42.656;21.156;2023-04-23T09:49:04;14.95;;;7.60;;
32198;SDS011;19221;42.656;21.156;2023-04-23T09:51:36;16.27;;;6.85;;
32198;SDS011;19221;42.656;21.156;2023-04-23T09:54:03;11.45;;;6.63;;
32198;SDS011;19221;42.656;21.156;2023-04-23T09:56:30;11.30;;;6.25;;
32198;SDS011;19221;42.656;21.156;2023-04-23T09:58:57;15.15;;;5.93;;
32198;SDS011;19221;42.656;21.156;2023-04-23T10:01:28;15.13;;;5.40;;
32198;SDS011;19221;42.656;21.156;2023-04-23T10:03:54;9.00;;;5.40;;
32198;SDS011;19221;42.656;21.156;2023-04-23T10:06:28;22.75;;;6.85;;
32198;SDS011;19221;42.656;21.156;2023-04-23T10:08:56;53.75;;;8.32;;
32198;SDS011;19221;42.656;21.156;2023-04-23T10:11:23;19.20;;;7.03;;
32198;SDS011;19221;42.656;21.156;2023-04-23T10:13:49;8.30;;;5.07;;
32198;SDS011;19221;42.656;21.156;2023-04-23T10:16:16;13.68;;;6.30;;
32198;SDS011;19221;42.656;21.156;2023-04-23T10:18:42;10.70;;;5.15;;
32198;SDS011;19221;42.656;21.156;2023-04-23T10:21:09;11.90;;;6.07;;
32198;SDS011;19221;42.656;21.156;2023-04-23T10:23:35;12.02;;;5.88;;
32198;SDS011;19221;42.656;21.156;2023-04-23T10:26:03;14.10;;;5.55;;
32198;SDS011;19221;42.656;21.156;2023-04-23T10:28:29;7.95;;;4.43;;
32198;SDS011;19221;42.656;21.156;2023-04-23T10:30:57;8.57;;;4.80;;
32198;SDS011;19221;42.656;21.156;2023-04-23T10:33:23;10.93;;;4.80;;
32198;SDS011;19221;42.656;21.156;2023-04-23T10:35:50;15.23;;;6.38;;
32198;SDS011;19221;42.656;21.156;2023-04-23T10:38:16;11.70;;;5.07;;
32198;SDS011;19221;42.656;21.156;2023-04-23T10:40:43;9.52;;;5.22;;
32198;SDS011;19221;42.656;21.156;2023-04-23T10:43:09;13.60;;;5.88;;
32198;SDS011;19221;42.656;21.156;2023-04-23T10:45:35;11.70;;;6.30;;
32198;SDS011;19221;42.656;21.156;2023-04-23T10:48:01;9.80;;;5.03;;
32198;SDS011;19221;42.656;21.156;2023-04-23T10:50:29;10.48;;;3.97;;
32198;SDS011;19221;42.656;21.156;2023-04-23T10:52:56;7.68;;;3.90;;
32198;SDS011;19221;42.656;21.156;2023-04-23T10:55:22;12.98;;;3.95;;
32198;SDS011;19221;42.656;21.156;2023-04-23T11:00:21;6.88;;;3.90;;
32198;SDS011;19221;42.656;21.156;2023-04-23T11:02:46;6.00;;;3.92;;
32198;SDS011;19221;42.656;21.156;2023-04-23T11:05:12;11.68;;;4.57;;
32198;SDS011;19221;42.656;21.156;2023-04-23T11:07:38;18.60;;;6.78;;
32198;SDS011;19221;42.656;21.156;2023-04-23T11:10:10;24.95;;;6.40;;
32198;SDS011;19221;42.656;21.156;2023-04-23T11:12:37;23.58;;;5.90;;
32198;SDS011;19221;42.656;21.156;2023-04-23T11:15:10;15.48;;;5.38;;
32198;SDS011;19221;42.656;21.156;2023-04-23T11:20:11;15.43;;;5.93;;
32198;SDS011;19221;42.656;21.156;2023-04-23T11:22:41;23.77;;;9.13;;
32198;SDS011;19221;42.656;21.156;2023-04-23T11:25:07;10.57;;;4.60;;
32198;SDS011;19221;42.656;21.156;2023-04-23T11:27:33;7.55;;;4.78;;
32198;SDS011;19221;42.656;21.156;2023-04-23T11:30:01;8.05;;;4.30;;
32198;SDS011;19221;42.656;21.156;2023-04-23T11:32:27;12.05;;;4.38;;
32198;SDS011;19221;42.656;21.156;2023-04-23T11:34:53;13.23;;;4.82;;
32198;SDS011;19221;42.656;21.156;2023-04-23T11:37:19;9.88;;;4.28;;
32198;SDS011;19221;42.656;21.156;2023-04-23T11:39:45;8.27;;;4.90;;
32198;SDS011;19221;42.656;21.156;2023-04-23T11:42:16;13.63;;;5.25;;
32198;SDS011;19221;42.656;21.156;2023-04-23T11:44:44;8.45;;;4.80;;
32198;SDS011;19221;42.656;21.156;2023-04-23T11:47:11;8.30;;;4.78;;
32198;SDS011;19221;42.656;21.156;2023-04-23T11:49:37;13.10;;;4.47;;
32198;SDS011;19221;42.656;21.156;2023-04-23T11:52:02;11.82;;;4.75;;
32198;SDS011;19221;42.656;21.156;2023-04-23T11:54:28;7.80;;;4.88;;
32198;SDS011;19221;42.656;21.156;2023-04-23T11:56:54;14.35;;;4.80;;
32198;SDS011;19221;42.656;21.156;2023-04-23T11:59:20;18.42;;;6.53;;
32198;SDS011;19221;42.656;21.156;2023-04-23T12:01:48;16.25;;;5.10;;
32198;SDS011;19221;42.656;21.156;2023-04-23T12:04:15;20.90;;;9.18;;
32198;SDS011;19221;42.656;21.156;2023-04-23T12:06:42;10.73;;;5.13;;
32198;SDS011;19221;42.656;21.156;2023-04-23T12:09:07;14.13;;;7.80;;
32198;SDS011;19221;42.656;21.156;2023-04-23T12:11:34;12.85;;;5.72;;
32198;SDS011;19221;42.656;21.156;2023-04-23T12:14:00;13.70;;;5.60;;
32198;SDS011;19221;42.656;21.156;2023-04-23T12:16:39;9.48;;;4.60;;
32198;SDS011;19221;42.656;21.156;2023-04-23T12:19:08;10.98;;;5.05;;
32198;SDS011;19221;42.656;21.156;2023-04-23T12:21:34;24.80;;;9.82;;
32198;SDS011;19221;42.656;21.156;2023-04-23T12:24:11;10.88;;;5.60;;
32198;SDS011;19221;42.656;21.156;2023-04-23T12:26:36;11.38;;;6.00;;
32198;SDS011;19221;42.656;21.156;2023-04-23T12:29:02;13.13;;;6.05;;
32198;SDS011;19221;42.656;21.156;2023-04-23T12:31:28;13.05;;;5.45;;
32198;SDS011;19221;42.656;21.156;2023-04-23T12:34:12;10.35;;;5.70;;
32198;SDS011;19221;42.656;21.156;2023-04-23T12:36:42;16.27;;;5.32;;
32198;SDS011;19221;42.656;21.156;2023-04-23T12:39:21;13.75;;;5.82;;
32198;SDS011;19221;42.656;21.156;2023-04-23T12:41:54;13.88;;;5.93;;
32198;SDS011;19221;42.656;21.156;2023-04-23T12:44:20;14.57;;;6.80;;
32198;SDS011;19221;42.656;21.156;2023-04-23T12:47:05;79.03;;;13.50;;
32198;SDS011;19221;42.656;21.156;2023-04-23T12:49:31;18.63;;;5.90;;
32198;SDS011;19221;42.656;21.156;2023-04-23T12:51:58;11.60;;;4.97;;
32198;SDS011;19221;42.656;21.156;2023-04-23T12:54:27;58.58;;;10.38;;
32198;SDS011;19221;42.656;21.156;2023-04-23T12:56:54;16.08;;;5.70;;
32198;SDS011;19221;42.656;21.156;2023-04-23T12:59:20;17.75;;;6.57;;
32198;SDS011;19221;42.656;21.156;2023-04-23T13:01:45;14.18;;;6.15;;
32198;SDS011;19221;42.656;21.156;2023-04-23T13:04:11;21.77;;;7.05;;
32198;SDS011;19221;42.656;21.156;2023-04-23T13:06:38;9.63;;;5.93;;
32198;SDS011;19221;42.656;21.156;2023-04-23T13:09:03;9.55;;;5.45;;
32198;SDS011;19221;42.656;21.156;2023-04-23T13:11:30;13.85;;;4.97;;
32198;SDS011;19221;42.656;21.156;2023-04-23T13:13:56;10.18;;;5.30;;
32198;SDS011;19221;42.656;21.156;2023-04-23T13:16:22;12.93;;;5.75;;
32198;SDS011;19221;42.656;21.156;2023-04-23T13:18:48;6.97;;;5.10;;
32198;SDS011;19221;42.656;21.156;2023-04-23T13:21:16;10.43;;;5.80;;
32198;SDS011;19221;42.656;21.156;2023-04-23T13:23:41;10.13;;;5.00;;
32198;SDS011;19221;42.656;21.156;2023-04-23T13:26:07;13.55;;;5.22;;
32198;SDS011;19221;42.656;21.156;2023-04-23T13:28:33;8.75;;;5.55;;
32198;SDS011;19221;42.656;21.156;2023-04-23T13:30:59;6.93;;;4.07;;
32198;SDS011;19221;42.656;21.156;2023-04-23T13:33:25;12.48;;;5.07;;
32198;SDS011;19221;42.656;21.156;2023-04-23T13:35:50;11.50;;;5.18;;
32198;SDS011;19221;42.656;21.156;2023-04-23T13:38:16;13.02;;;4.63;;
32198;SDS011;19221;42.656;21.156;2023-04-23T13:40:42;12.88;;;5.05;;
32198;SDS011;19221;42.656;21.156;2023-04-23T13:43:09;8.63;;;4.82;;
32198;SDS011;19221;42.656;21.156;2023-04-23T13:45:34;9.00;;;5.00;;
32198;SDS011;19221;42.656;21.156;2023-04-23T13:48:00;15.20;;;5.78;;
32198;SDS011;19221;42.656;21.156;2023-04-23T13:50:27;13.13;;;5.10;;
32198;SDS011;19221;42.656;21.156;2023-04-23T13:52:52;10.15;;;5.38;;
32198;SDS011;19221;42.656;21.156;2023-04-23T13:55:18;10.32;;;4.68;;
32198;SDS011;19221;42.656;21.156;2023-04-23T13:57:43;8.55;;;4.30;;
32198;SDS011;19221;42.656;21.156;2023-04-23T14:00:09;12.32;;;5.43;;
32198;SDS011;19221;42.656;21.156;2023-04-23T14:02:37;12.73;;;5.53;;
32198;SDS011;19221;42.656;21.156;2023-04-23T14:05:03;10.25;;;4.80;;
32198;SDS011;19221;42.656;21.156;2023-04-23T14:07:30;9.50;;;4.78;;
32198;SDS011;19221;42.656;21.156;2023-04-23T14:09:55;11.48;;;5.35;;
32198;SDS011;19221;42.656;21.156;2023-04-23T14:12:21;12.02;;;5.63;;
32198;SDS011;19221;42.656;21.156;2023-04-23T14:14:48;8.50;;;4.53;;
32198;SDS011;19221;42.656;21.156;2023-04-23T14:17:14;11.73;;;4.55;;
32198;SDS011;19221;42.656;21.156;2023-04-23T14:19:40;10.23;;;5.03;;
32198;SDS011;19221;42.656;21.156;2023-04-23T14:22:06;6.85;;;4.60;;